sensor_id;sensor_type;location;lat;lon;timestamp;P1;durP1;ratioP1;P2;durP2;ratioP2
12906;SDS011;6521;50.498;8.474;2023-03-20T00:01:29;6.87;;;5.30;;
12906;SDS011;6521;50.498;8.474;2023-03-20T00:04:21;6.07;;;5.00;;
12906;SDS011;6521;50.498;8.474;2023-03-20T00:07:12;10.10;;;5.13;;
12906;SDS011;6521;50.498;8.474;2023-03-20T00:10:03;5.73;;;4.80;;
12906;SDS011;6521;50.498;8.474;2023-03-20T00:12:54;7.70;;;5.40;;
12906;SDS011;6521;50.498;8.474;2023-03-20T00:15:46;6.20;;;4.97;;
12906;SDS011;6521;50.498;8.474;2023-03-20T00:18:37;5.70;;;5.07;;
12906;SDS011;6521;50.498;8.474;2023-03-20T00:21:29;8.30;;;5.67;;
12906;SDS011;6521;50.498;8.474;2023-03-20T00:24:21;6.47;;;5.47;;
12906;SDS011;6521;50.498;8.474;2023-03-20T00:27:12;6.70;;;5.33;;
12906;SDS011;6521;50.498;8.474;2023-03-20T00:30:47;8.43;;;5.83;;
12906;SDS011;6521;50.498;8.474;2023-03-20T00:33:20;6.20;;;5.60;;
12906;SDS011;6521;50.498;8.474;2023-03-20T00:36:10;7.23;;;5.93;;
12906;SDS011;6521;50.498;8.474;2023-03-20T00:39:01;6.63;;;6.00;;
12906;SDS011;6521;50.498;8.474;2023-03-20T00:41:56;6.40;;;5.70;;
12906;SDS011;6521;50.498;8.474;2023-03-20T00:44:51;8.67;;;6.73;;
12906;SDS011;6521;50.498;8.474;2023-03-20T00:47:43;7.13;;;6.10;;
12906;SDS011;6521;50.498;8.474;2023-03-20T00:50:36;9.33;;;7.07;;
12906;SDS011;6521;50.498;8.474;2023-03-20T00:53:29;10.17;;;7.90;;
12906;SDS011;6521;50.498;8.474;2023-03-20T00:59:21;10.30;;;8.40;;
12906;SDS011;6521;50.498;8.474;2023-03-20T01:02:15;11.20;;;8.80;;
12906;SDS011;6521;50.498;8.474;2023-03-20T01:05:06;14.73;;;9.13;;
12906;SDS011;6521;50.498;8.474;2023-03-20T01:07:57;14.57;;;8.57;;
12906;SDS011;6521;50.498;8.474;2023-03-20T01:10:52;14.27;;;9.67;;
12906;SDS011;6521;50.498;8.474;2023-03-20T01:13:46;14.40;;;10.10;;
12906;SDS011;6521;50.498;8.474;2023-03-20T01:16:37;15.83;;;11.40;;
12906;SDS011;6521;50.498;8.474;2023-03-20T01:19:27;13.33;;;11.53;;
12906;SDS011;6521;50.498;8.474;2023-03-20T01:22:18;15.43;;;11.50;;
12906;SDS011;6521;50.498;8.474;2023-03-20T01:25:09;16.03;;;11.60;;
12906;SDS011;6521;50.498;8.474;2023-03-20T01:28:01;14.47;;;11.30;;
12906;SDS011;6521;50.498;8.474;2023-03-20T01:30:56;17.00;;;11.93;;
12906;SDS011;6521;50.498;8.474;2023-03-20T01:33:49;14.47;;;11.13;;
12906;SDS011;6521;50.498;8.474;2023-03-20T01:36:42;15.70;;;11.27;;
12906;SDS011;6521;50.498;8.474;2023-03-20T01:39:37;15.10;;;11.43;;
12906;SDS011;6521;50.498;8.474;2023-03-20T01:42:29;16.13;;;12.10;;
12906;SDS011;6521;50.498;8.474;2023-03-20T01:45:23;19.30;;;12.40;;
12906;SDS011;6521;50.498;8.474;2023-03-20T01:48:20;16.53;;;12.77;;
12906;SDS011;6521;50.498;8.474;2023-03-20T01:51:24;19.10;;;12.50;;
12906;SDS011;6521;50.498;8.474;2023-03-20T01:54:21;19.37;;;12.97;;
12906;SDS011;6521;50.498;8.474;2023-03-20T01:57:29;19.93;;;13.37;;
12906;SDS011;6521;50.498;8.474;2023-03-20T02:00:21;23.67;;;16.17;;
12906;SDS011;6521;50.498;8.474;2023-03-20T02:03:13;22.63;;;15.30;;
12906;SDS011;6521;50.498;8.474;2023-03-20T02:06:24;24.50;;;16.00;;
12906;SDS011;6521;50.498;8.474;2023-03-20T02:09:38;27.37;;;17.67;;
12906;SDS011;6521;50.498;8.474;2023-03-20T02:12:33;27.97;;;17.67;;
12906;SDS011;6521;50.498;8.474;2023-03-20T02:15:28;31.00;;;18.83;;
12906;SDS011;6521;50.498;8.474;2023-03-20T02:18:32;32.17;;;20.17;;
12906;SDS011;6521;50.498;8.474;2023-03-20T02:25:14;34.33;;;20.77;;
12906;SDS011;6521;50.498;8.474;2023-03-20T02:38:02;37.40;;;22.40;;
12906;SDS011;6521;50.498;8.474;2023-03-20T02:44:23;35.70;;;21.63;;
12906;SDS011;6521;50.498;8.474;2023-03-20T02:47:36;34.07;;;21.60;;
12906;SDS011;6521;50.498;8.474;2023-03-20T02:50:43;39.00;;;21.93;;
12906;SDS011;6521;50.498;8.474;2023-03-20T02:59:56;42.57;;;25.53;;
12906;SDS011;6521;50.498;8.474;2023-03-20T03:06:26;46.37;;;26.10;;
12906;SDS011;6521;50.498;8.474;2023-03-20T03:09:20;45.77;;;26.70;;
12906;SDS011;6521;50.498;8.474;2023-03-20T03:12:16;55.63;;;29.67;;
12906;SDS011;6521;50.498;8.474;2023-03-20T03:15:27;61.87;;;32.67;;
12906;SDS011;6521;50.498;8.474;2023-03-20T03:18:22;59.83;;;30.90;;
12906;SDS011;6521;50.498;8.474;2023-03-20T03:21:15;61.57;;;31.57;;
12906;SDS011;6521;50.498;8.474;2023-03-20T03:24:28;47.57;;;28.20;;
12906;SDS011;6521;50.498;8.474;2023-03-20T03:27:20;44.13;;;25.47;;
12906;SDS011;6521;50.498;8.474;2023-03-20T03:30:16;43.77;;;26.80;;
12906;SDS011;6521;50.498;8.474;2023-03-20T03:33:18;58.30;;;29.80;;
12906;SDS011;6521;50.498;8.474;2023-03-20T03:36:18;64.03;;;31.67;;
12906;SDS011;6521;50.498;8.474;2023-03-20T03:39:39;66.70;;;31.13;;
12906;SDS011;6521;50.498;8.474;2023-03-20T03:45:34;65.43;;;34.00;;
12906;SDS011;6521;50.498;8.474;2023-03-20T03:48:31;65.70;;;33.40;;
12906;SDS011;6521;50.498;8.474;2023-03-20T03:51:25;70.87;;;32.80;;
12906;SDS011;6521;50.498;8.474;2023-03-20T03:54:31;72.40;;;32.57;;
12906;SDS011;6521;50.498;8.474;2023-03-20T03:58:00;74.07;;;33.97;;
12906;SDS011;6521;50.498;8.474;2023-03-20T04:00:56;64.07;;;32.07;;
12906;SDS011;6521;50.498;8.474;2023-03-20T04:03:50;72.83;;;31.87;;
12906;SDS011;6521;50.498;8.474;2023-03-20T04:06:45;70.33;;;32.60;;
12906;SDS011;6521;50.498;8.474;2023-03-20T04:09:36;67.77;;;32.10;;
12906;SDS011;6521;50.498;8.474;2023-03-20T04:15:18;66.80;;;30.93;;
12906;SDS011;6521;50.498;8.474;2023-03-20T04:18:14;59.00;;;30.67;;
12906;SDS011;6521;50.498;8.474;2023-03-20T04:21:08;54.43;;;29.23;;
12906;SDS011;6521;50.498;8.474;2023-03-20T04:23:59;61.80;;;29.43;;
12906;SDS011;6521;50.498;8.474;2023-03-20T04:26:50;64.63;;;29.50;;
12906;SDS011;6521;50.498;8.474;2023-03-20T04:29:42;57.17;;;28.40;;
12906;SDS011;6521;50.498;8.474;2023-03-20T04:32:51;55.47;;;27.43;;
12906;SDS011;6521;50.498;8.474;2023-03-20T04:35:49;50.83;;;26.70;;
12906;SDS011;6521;50.498;8.474;2023-03-20T04:38:40;53.43;;;25.43;;
12906;SDS011;6521;50.498;8.474;2023-03-20T04:41:31;52.57;;;25.90;;
12906;SDS011;6521;50.498;8.474;2023-03-20T04:44:22;45.07;;;24.50;;
12906;SDS011;6521;50.498;8.474;2023-03-20T04:47:13;43.97;;;25.37;;
12906;SDS011;6521;50.498;8.474;2023-03-20T04:50:06;44.97;;;23.77;;
12906;SDS011;6521;50.498;8.474;2023-03-20T04:52:57;50.63;;;27.33;;
12906;SDS011;6521;50.498;8.474;2023-03-20T04:55:48;47.30;;;27.60;;
12906;SDS011;6521;50.498;8.474;2023-03-20T04:58:41;39.40;;;23.90;;
12906;SDS011;6521;50.498;8.474;2023-03-20T05:01:33;41.23;;;23.63;;
12906;SDS011;6521;50.498;8.474;2023-03-20T05:04:24;43.77;;;24.07;;
12906;SDS011;6521;50.498;8.474;2023-03-20T05:07:15;41.33;;;23.77;;
12906;SDS011;6521;50.498;8.474;2023-03-20T05:10:25;42.70;;;22.87;;
12906;SDS011;6521;50.498;8.474;2023-03-20T05:13:21;41.00;;;23.00;;
12906;SDS011;6521;50.498;8.474;2023-03-20T05:16:38;38.80;;;23.37;;
12906;SDS011;6521;50.498;8.474;2023-03-20T05:19:46;42.63;;;24.10;;
12906;SDS011;6521;50.498;8.474;2023-03-20T05:22:47;44.60;;;24.73;;
12906;SDS011;6521;50.498;8.474;2023-03-20T05:25:55;48.70;;;25.47;;
12906;SDS011;6521;50.498;8.474;2023-03-20T05:28:55;44.83;;;26.13;;
12906;SDS011;6521;50.498;8.474;2023-03-20T05:32:05;45.23;;;25.90;;
12906;SDS011;6521;50.498;8.474;2023-03-20T05:35:02;48.77;;;26.50;;
12906;SDS011;6521;50.498;8.474;2023-03-20T05:38:05;43.53;;;25.47;;
12906;SDS011;6521;50.498;8.474;2023-03-20T05:41:15;43.60;;;25.00;;
12906;SDS011;6521;50.498;8.474;2023-03-20T05:44:26;43.93;;;24.67;;
12906;SDS011;6521;50.498;8.474;2023-03-20T05:47:35;46.30;;;26.33;;
12906;SDS011;6521;50.498;8.474;2023-03-20T05:50:58;46.07;;;26.10;;
12906;SDS011;6521;50.498;8.474;2023-03-20T05:54:08;49.83;;;26.90;;
12906;SDS011;6521;50.498;8.474;2023-03-20T05:57:17;47.90;;;26.83;;
12906;SDS011;6521;50.498;8.474;2023-03-20T06:00:28;54.43;;;29.07;;
12906;SDS011;6521;50.498;8.474;2023-03-20T06:03:42;55.60;;;29.03;;
12906;SDS011;6521;50.498;8.474;2023-03-20T06:06:38;56.27;;;29.47;;
12906;SDS011;6521;50.498;8.474;2023-03-20T06:09:31;52.30;;;28.07;;
12906;SDS011;6521;50.498;8.474;2023-03-20T06:12:23;53.87;;;29.17;;
12906;SDS011;6521;50.498;8.474;2023-03-20T06:15:14;53.93;;;29.83;;
12906;SDS011;6521;50.498;8.474;2023-03-20T06:18:11;52.97;;;28.63;;
12906;SDS011;6521;50.498;8.474;2023-03-20T06:21:02;51.60;;;28.03;;
12906;SDS011;6521;50.498;8.474;2023-03-20T06:23:55;59.23;;;29.20;;
12906;SDS011;6521;50.498;8.474;2023-03-20T06:26:47;54.93;;;29.17;;
12906;SDS011;6521;50.498;8.474;2023-03-20T06:29:38;55.57;;;30.13;;
12906;SDS011;6521;50.498;8.474;2023-03-20T06:32:40;53.53;;;30.10;;
12906;SDS011;6521;50.498;8.474;2023-03-20T06:35:35;51.30;;;29.57;;
12906;SDS011;6521;50.498;8.474;2023-03-20T06:38:26;52.37;;;28.63;;
12906;SDS011;6521;50.498;8.474;2023-03-20T06:41:18;45.97;;;27.40;;
12906;SDS011;6521;50.498;8.474;2023-03-20T06:44:08;48.37;;;27.77;;
12906;SDS011;6521;50.498;8.474;2023-03-20T06:47:28;45.73;;;25.50;;
12906;SDS011;6521;50.498;8.474;2023-03-20T06:50:20;50.57;;;28.37;;
12906;SDS011;6521;50.498;8.474;2023-03-20T06:53:11;41.80;;;26.33;;
12906;SDS011;6521;50.498;8.474;2023-03-20T06:56:07;44.70;;;26.87;;
12906;SDS011;6521;50.498;8.474;2023-03-20T06:58:58;44.20;;;26.63;;
12906;SDS011;6521;50.498;8.474;2023-03-20T07:01:49;44.60;;;26.37;;
12906;SDS011;6521;50.498;8.474;2023-03-20T07:04:42;41.90;;;26.07;;
12906;SDS011;6521;50.498;8.474;2023-03-20T07:07:32;43.97;;;26.77;;
12906;SDS011;6521;50.498;8.474;2023-03-20T07:10:23;42.47;;;26.10;;
12906;SDS011;6521;50.498;8.474;2023-03-20T07:13:16;47.63;;;27.43;;
12906;SDS011;6521;50.498;8.474;2023-03-20T07:16:08;46.13;;;28.10;;
12906;SDS011;6521;50.498;8.474;2023-03-20T07:19:03;45.13;;;26.80;;
12906;SDS011;6521;50.498;8.474;2023-03-20T07:21:58;52.40;;;29.73;;
12906;SDS011;6521;50.498;8.474;2023-03-20T07:24:53;49.00;;;27.97;;
12906;SDS011;6521;50.498;8.474;2023-03-20T07:27:46;47.40;;;26.73;;
12906;SDS011;6521;50.498;8.474;2023-03-20T07:30:41;47.43;;;28.47;;
12906;SDS011;6521;50.498;8.474;2023-03-20T07:33:33;41.77;;;26.10;;
12906;SDS011;6521;50.498;8.474;2023-03-20T07:36:24;45.50;;;27.17;;
12906;SDS011;6521;50.498;8.474;2023-03-20T07:39:15;46.03;;;27.83;;
12906;SDS011;6521;50.498;8.474;2023-03-20T07:42:13;48.67;;;28.30;;
12906;SDS011;6521;50.498;8.474;2023-03-20T07:45:14;44.47;;;28.53;;
12906;SDS011;6521;50.498;8.474;2023-03-20T07:48:08;47.57;;;27.87;;
12906;SDS011;6521;50.498;8.474;2023-03-20T07:50:59;41.20;;;26.93;;
12906;SDS011;6521;50.498;8.474;2023-03-20T07:53:50;43.23;;;27.33;;
12906;SDS011;6521;50.498;8.474;2023-03-20T07:56:41;41.37;;;26.23;;
12906;SDS011;6521;50.498;8.474;2023-03-20T07:59:32;39.07;;;26.10;;
12906;SDS011;6521;50.498;8.474;2023-03-20T08:02:22;38.23;;;26.17;;
12906;SDS011;6521;50.498;8.474;2023-03-20T08:05:14;40.93;;;27.57;;
12906;SDS011;6521;50.498;8.474;2023-03-20T08:08:04;42.30;;;26.10;;
12906;SDS011;6521;50.498;8.474;2023-03-20T08:10:55;43.53;;;27.23;;
12906;SDS011;6521;50.498;8.474;2023-03-20T08:13:47;37.67;;;24.97;;
12906;SDS011;6521;50.498;8.474;2023-03-20T08:16:38;35.37;;;25.90;;
12906;SDS011;6521;50.498;8.474;2023-03-20T08:19:28;33.03;;;23.30;;
12906;SDS011;6521;50.498;8.474;2023-03-20T08:22:19;40.87;;;25.80;;
12906;SDS011;6521;50.498;8.474;2023-03-20T08:25:10;34.00;;;24.33;;
12906;SDS011;6521;50.498;8.474;2023-03-20T08:28:01;35.70;;;24.10;;
12906;SDS011;6521;50.498;8.474;2023-03-20T08:30:53;36.27;;;23.47;;
12906;SDS011;6521;50.498;8.474;2023-03-20T08:33:44;34.70;;;22.17;;
12906;SDS011;6521;50.498;8.474;2023-03-20T08:36:35;31.03;;;23.17;;
12906;SDS011;6521;50.498;8.474;2023-03-20T08:39:26;29.70;;;21.20;;
12906;SDS011;6521;50.498;8.474;2023-03-20T08:42:17;35.20;;;22.40;;
12906;SDS011;6521;50.498;8.474;2023-03-20T08:45:08;32.30;;;21.63;;
12906;SDS011;6521;50.498;8.474;2023-03-20T08:47:59;30.53;;;21.03;;
12906;SDS011;6521;50.498;8.474;2023-03-20T08:50:50;31.57;;;19.17;;
12906;SDS011;6521;50.498;8.474;2023-03-20T08:53:41;29.93;;;19.47;;
12906;SDS011;6521;50.498;8.474;2023-03-20T08:56:32;28.27;;;19.30;;
12906;SDS011;6521;50.498;8.474;2023-03-20T08:59:22;32.37;;;20.47;;
12906;SDS011;6521;50.498;8.474;2023-03-20T09:02:13;29.17;;;18.70;;
12906;SDS011;6521;50.498;8.474;2023-03-20T09:05:04;26.10;;;18.67;;
12906;SDS011;6521;50.498;8.474;2023-03-20T09:07:56;27.20;;;18.53;;
12906;SDS011;6521;50.498;8.474;2023-03-20T09:10:46;28.23;;;19.07;;
12906;SDS011;6521;50.498;8.474;2023-03-20T09:13:38;29.40;;;19.50;;
12906;SDS011;6521;50.498;8.474;2023-03-20T09:16:29;27.13;;;18.73;;
12906;SDS011;6521;50.498;8.474;2023-03-20T09:19:19;27.27;;;17.83;;
12906;SDS011;6521;50.498;8.474;2023-03-20T09:22:12;24.57;;;17.37;;
12906;SDS011;6521;50.498;8.474;2023-03-20T09:25:04;39.57;;;20.80;;
12906;SDS011;6521;50.498;8.474;2023-03-20T09:27:55;27.73;;;18.63;;
12906;SDS011;6521;50.498;8.474;2023-03-20T09:30:46;29.60;;;18.53;;
12906;SDS011;6521;50.498;8.474;2023-03-20T09:33:37;21.70;;;16.50;;
12906;SDS011;6521;50.498;8.474;2023-03-20T09:36:28;22.70;;;16.40;;
12906;SDS011;6521;50.498;8.474;2023-03-20T09:39:19;20.27;;;14.97;;
12906;SDS011;6521;50.498;8.474;2023-03-20T09:45:19;20.83;;;15.00;;
12906;SDS011;6521;50.498;8.474;2023-03-20T09:52:00;21.03;;;16.20;;
12906;SDS011;6521;50.498;8.474;2023-03-20T09:55:05;19.07;;;13.10;;
12906;SDS011;6521;50.498;8.474;2023-03-20T10:01:15;20.73;;;14.50;;
12906;SDS011;6521;50.498;8.474;2023-03-20T10:04:08;22.40;;;14.27;;
12906;SDS011;6521;50.498;8.474;2023-03-20T10:07:01;33.97;;;18.67;;
12906;SDS011;6521;50.498;8.474;2023-03-20T10:09:54;23.57;;;15.83;;
12906;SDS011;6521;50.498;8.474;2023-03-20T10:19:28;29.67;;;16.33;;
12906;SDS011;6521;50.498;8.474;2023-03-20T10:22:32;22.97;;;16.27;;
12906;SDS011;6521;50.498;8.474;2023-03-20T10:25:32;26.23;;;15.90;;
12906;SDS011;6521;50.498;8.474;2023-03-20T10:28:33;23.57;;;15.90;;
12906;SDS011;6521;50.498;8.474;2023-03-20T10:31:35;19.97;;;15.07;;
12906;SDS011;6521;50.498;8.474;2023-03-20T10:34:30;19.23;;;13.97;;
12906;SDS011;6521;50.498;8.474;2023-03-20T10:40:41;22.73;;;15.37;;
12906;SDS011;6521;50.498;8.474;2023-03-20T10:43:34;24.43;;;15.40;;
12906;SDS011;6521;50.498;8.474;2023-03-20T10:46:27;20.70;;;15.17;;
12906;SDS011;6521;50.498;8.474;2023-03-20T10:49:26;18.53;;;14.17;;
12906;SDS011;6521;50.498;8.474;2023-03-20T10:52:30;20.17;;;13.90;;
12906;SDS011;6521;50.498;8.474;2023-03-20T10:55:25;19.20;;;13.30;;
12906;SDS011;6521;50.498;8.474;2023-03-20T10:58:20;18.13;;;12.60;;
12906;SDS011;6521;50.498;8.474;2023-03-20T11:01:13;19.90;;;13.67;;
12906;SDS011;6521;50.498;8.474;2023-03-20T11:04:04;18.77;;;13.03;;
12906;SDS011;6521;50.498;8.474;2023-03-20T11:12:54;14.83;;;11.00;;
12906;SDS011;6521;50.498;8.474;2023-03-20T11:15:45;15.23;;;11.47;;
12906;SDS011;6521;50.498;8.474;2023-03-20T11:18:36;14.57;;;11.02;;
12906;SDS011;6521;50.498;8.474;2023-03-20T11:21:30;16.35;;;9.73;;
12906;SDS011;6521;50.498;8.474;2023-03-20T11:24:23;10.00;;;8.63;;
12906;SDS011;6521;50.498;8.474;2023-03-20T11:27:18;10.15;;;8.48;;
12906;SDS011;6521;50.498;8.474;2023-03-20T11:30:15;13.50;;;8.32;;
12906;SDS011;6521;50.498;8.474;2023-03-20T11:33:07;11.65;;;8.73;;
12906;SDS011;6521;50.498;8.474;2023-03-20T11:35:59;10.70;;;8.40;;
12906;SDS011;6521;50.498;8.474;2023-03-20T11:38:51;9.65;;;7.93;;
12906;SDS011;6521;50.498;8.474;2023-03-20T11:41:47;10.02;;;7.38;;
12906;SDS011;6521;50.498;8.474;2023-03-20T11:44:40;11.88;;;7.15;;
12906;SDS011;6521;50.498;8.474;2023-03-20T11:47:32;8.07;;;6.25;;
12906;SDS011;6521;50.498;8.474;2023-03-20T11:50:35;8.82;;;6.43;;
12906;SDS011;6521;50.498;8.474;2023-03-20T11:54:12;8.25;;;5.72;;
12906;SDS011;6521;50.498;8.474;2023-03-20T11:56:54;9.65;;;6.07;;
12906;SDS011;6521;50.498;8.474;2023-03-20T11:59:48;6.88;;;5.00;;
12906;SDS011;6521;50.498;8.474;2023-03-20T12:02:39;6.15;;;4.53;;
12906;SDS011;6521;50.498;8.474;2023-03-20T12:08:22;5.20;;;4.32;;
12906;SDS011;6521;50.498;8.474;2023-03-20T12:11:23;5.53;;;4.07;;
12906;SDS011;6521;50.498;8.474;2023-03-20T12:14:36;6.32;;;3.92;;
12906;SDS011;6521;50.498;8.474;2023-03-20T12:20:53;4.85;;;3.80;;
12906;SDS011;6521;50.498;8.474;2023-03-20T12:23:59;4.28;;;3.78;;
12906;SDS011;6521;50.498;8.474;2023-03-20T12:27:16;7.03;;;3.90;;
12906;SDS011;6521;50.498;8.474;2023-03-20T12:30:13;7.30;;;4.28;;
12906;SDS011;6521;50.498;8.474;2023-03-20T12:33:28;5.63;;;3.55;;
12906;SDS011;6521;50.498;8.474;2023-03-20T12:36:32;5.30;;;4.13;;
12906;SDS011;6521;50.498;8.474;2023-03-20T12:39:27;8.02;;;3.20;;
12906;SDS011;6521;50.498;8.474;2023-03-20T12:45:38;6.22;;;3.05;;
12906;SDS011;6521;50.498;8.474;2023-03-20T12:51:41;3.95;;;2.95;;
12906;SDS011;6521;50.498;8.474;2023-03-20T13:07:01;5.25;;;2.13;;
12906;SDS011;6521;50.498;8.474;2023-03-20T13:09:59;2.47;;;2.05;;
12906;SDS011;6521;50.498;8.474;2023-03-20T13:19:13;3.72;;;2.50;;
12906;SDS011;6521;50.498;8.474;2023-03-20T13:22:46;3.53;;;2.50;;
12906;SDS011;6521;50.498;8.474;2023-03-20T13:32:14;7.70;;;3.30;;
12906;SDS011;6521;50.498;8.474;2023-03-20T13:38:17;4.28;;;3.30;;
12906;SDS011;6521;50.498;8.474;2023-03-20T13:41:12;3.70;;;3.07;;
12906;SDS011;6521;50.498;8.474;2023-03-20T13:44:03;4.17;;;2.90;;
12906;SDS011;6521;50.498;8.474;2023-03-20T13:46:56;4.33;;;3.00;;
12906;SDS011;6521;50.498;8.474;2023-03-20T13:49:52;5.97;;;3.73;;
12906;SDS011;6521;50.498;8.474;2023-03-20T13:52:58;4.40;;;3.00;;
12906;SDS011;6521;50.498;8.474;2023-03-20T13:59:09;3.50;;;2.53;;
12906;SDS011;6521;50.498;8.474;2023-03-20T14:05:44;4.03;;;2.30;;
12906;SDS011;6521;50.498;8.474;2023-03-20T14:08:36;11.20;;;2.47;;
12906;SDS011;6521;50.498;8.474;2023-03-20T14:11:28;3.00;;;2.27;;
12906;SDS011;6521;50.498;8.474;2023-03-20T14:14:32;4.07;;;2.60;;
12906;SDS011;6521;50.498;8.474;2023-03-20T14:17:32;5.17;;;2.47;;
12906;SDS011;6521;50.498;8.474;2023-03-20T14:20:34;7.57;;;2.63;;
12906;SDS011;6521;50.498;8.474;2023-03-20T14:24:03;3.37;;;2.53;;
12906;SDS011;6521;50.498;8.474;2023-03-20T14:27:00;4.33;;;2.37;;
12906;SDS011;6521;50.498;8.474;2023-03-20T14:29:51;2.70;;;2.30;;
12906;SDS011;6521;50.498;8.474;2023-03-20T14:32:50;5.00;;;2.23;;
12906;SDS011;6521;50.498;8.474;2023-03-20T14:35:51;4.80;;;2.00;;
12906;SDS011;6521;50.498;8.474;2023-03-20T14:39:45;3.70;;;2.40;;
12906;SDS011;6521;50.498;8.474;2023-03-20T14:42:36;3.27;;;2.67;;
12906;SDS011;6521;50.498;8.474;2023-03-20T14:48:55;5.20;;;2.60;;
12906;SDS011;6521;50.498;8.474;2023-03-20T14:51:47;3.20;;;2.37;;
12906;SDS011;6521;50.498;8.474;2023-03-20T14:54:42;5.07;;;2.63;;
12906;SDS011;6521;50.498;8.474;2023-03-20T14:57:41;3.30;;;2.00;;
12906;SDS011;6521;50.498;8.474;2023-03-20T15:00:34;5.13;;;1.70;;
12906;SDS011;6521;50.498;8.474;2023-03-20T15:03:35;4.87;;;2.30;;
12906;SDS011;6521;50.498;8.474;2023-03-20T15:06:29;3.43;;;2.50;;
12906;SDS011;6521;50.498;8.474;2023-03-20T15:09:21;6.07;;;3.13;;
12906;SDS011;6521;50.498;8.474;2023-03-20T15:12:18;3.77;;;2.90;;
12906;SDS011;6521;50.498;8.474;2023-03-20T15:15:28;4.97;;;3.20;;
12906;SDS011;6521;50.498;8.474;2023-03-20T15:18:24;6.03;;;3.00;;
12906;SDS011;6521;50.498;8.474;2023-03-20T15:21:17;4.47;;;3.10;;
12906;SDS011;6521;50.498;8.474;2023-03-20T15:24:28;5.30;;;3.30;;
12906;SDS011;6521;50.498;8.474;2023-03-20T15:27:19;4.60;;;3.20;;
12906;SDS011;6521;50.498;8.474;2023-03-20T15:30:12;5.07;;;3.20;;
12906;SDS011;6521;50.498;8.474;2023-03-20T15:33:06;4.70;;;3.40;;
12906;SDS011;6521;50.498;8.474;2023-03-20T15:36:17;4.30;;;3.20;;
12906;SDS011;6521;50.498;8.474;2023-03-20T15:39:14;6.97;;;3.63;;
12906;SDS011;6521;50.498;8.474;2023-03-20T15:42:11;7.60;;;3.27;;
12906;SDS011;6521;50.498;8.474;2023-03-20T15:45:20;7.93;;;3.33;;
12906;SDS011;6521;50.498;8.474;2023-03-20T15:48:17;4.77;;;4.03;;
12906;SDS011;6521;50.498;8.474;2023-03-20T15:51:09;6.97;;;3.87;;
12906;SDS011;6521;50.498;8.474;2023-03-20T15:54:00;6.33;;;3.40;;
12906;SDS011;6521;50.498;8.474;2023-03-20T15:56:57;5.37;;;3.33;;
12906;SDS011;6521;50.498;8.474;2023-03-20T15:59:50;8.80;;;3.77;;
12906;SDS011;6521;50.498;8.474;2023-03-20T16:02:43;4.70;;;3.20;;
12906;SDS011;6521;50.498;8.474;2023-03-20T16:05:36;5.30;;;3.17;;
12906;SDS011;6521;50.498;8.474;2023-03-20T16:08:28;7.07;;;3.27;;
12906;SDS011;6521;50.498;8.474;2023-03-20T16:11:20;4.13;;;2.97;;
12906;SDS011;6521;50.498;8.474;2023-03-20T16:14:16;4.47;;;3.10;;
12906;SDS011;6521;50.498;8.474;2023-03-20T16:17:10;6.20;;;3.00;;
12906;SDS011;6521;50.498;8.474;2023-03-20T16:20:02;9.23;;;3.37;;
12906;SDS011;6521;50.498;8.474;2023-03-20T16:22:54;5.47;;;2.73;;
12906;SDS011;6521;50.498;8.474;2023-03-20T16:25:50;6.43;;;2.70;;
12906;SDS011;6521;50.498;8.474;2023-03-20T16:28:50;3.53;;;2.53;;
12906;SDS011;6521;50.498;8.474;2023-03-20T16:31:46;4.00;;;2.83;;
12906;SDS011;6521;50.498;8.474;2023-03-20T16:34:44;7.30;;;2.93;;
12906;SDS011;6521;50.498;8.474;2023-03-20T16:37:47;4.50;;;3.10;;
12906;SDS011;6521;50.498;8.474;2023-03-20T16:40:42;3.27;;;2.97;;
12906;SDS011;6521;50.498;8.474;2023-03-20T16:43:32;6.03;;;2.63;;
12906;SDS011;6521;50.498;8.474;2023-03-20T16:46:28;5.63;;;3.13;;
12906;SDS011;6521;50.498;8.474;2023-03-20T16:52:29;5.13;;;2.70;;
12906;SDS011;6521;50.498;8.474;2023-03-20T16:55:23;6.80;;;3.77;;
12906;SDS011;6521;50.498;8.474;2023-03-20T16:58:22;6.70;;;3.70;;
12906;SDS011;6521;50.498;8.474;2023-03-20T17:01:20;7.63;;;4.07;;
12906;SDS011;6521;50.498;8.474;2023-03-20T17:04:20;5.80;;;3.83;;
12906;SDS011;6521;50.498;8.474;2023-03-20T17:07:14;4.67;;;3.70;;
12906;SDS011;6521;50.498;8.474;2023-03-20T17:13:07;10.53;;;4.90;;
12906;SDS011;6521;50.498;8.474;2023-03-20T17:15:58;12.70;;;6.93;;
12906;SDS011;6521;50.498;8.474;2023-03-20T17:19:03;12.80;;;7.30;;
12906;SDS011;6521;50.498;8.474;2023-03-20T17:21:56;8.13;;;5.03;;
12906;SDS011;6521;50.498;8.474;2023-03-20T17:24:52;8.63;;;5.27;;
12906;SDS011;6521;50.498;8.474;2023-03-20T17:27:43;11.73;;;7.43;;
12906;SDS011;6521;50.498;8.474;2023-03-20T17:30:34;10.57;;;7.47;;
12906;SDS011;6521;50.498;8.474;2023-03-20T17:33:25;23.43;;;15.33;;
12906;SDS011;6521;50.498;8.474;2023-03-20T17:36:25;15.17;;;8.00;;
12906;SDS011;6521;50.498;8.474;2023-03-20T17:39:18;15.93;;;8.13;;
12906;SDS011;6521;50.498;8.474;2023-03-20T17:42:20;9.10;;;6.13;;
12906;SDS011;6521;50.498;8.474;2023-03-20T17:45:14;8.67;;;5.20;;
12906;SDS011;6521;50.498;8.474;2023-03-20T17:48:10;11.87;;;7.53;;
12906;SDS011;6521;50.498;8.474;2023-03-20T17:51:05;10.43;;;6.60;;
12906;SDS011;6521;50.498;8.474;2023-03-20T17:53:56;10.27;;;6.80;;
12906;SDS011;6521;50.498;8.474;2023-03-20T17:56:47;13.57;;;7.40;;
12906;SDS011;6521;50.498;8.474;2023-03-20T17:59:38;7.93;;;4.83;;
12906;SDS011;6521;50.498;8.474;2023-03-20T18:02:28;6.00;;;4.37;;
12906;SDS011;6521;50.498;8.474;2023-03-20T18:05:19;6.50;;;4.53;;
12906;SDS011;6521;50.498;8.474;2023-03-20T18:08:11;9.93;;;5.53;;
12906;SDS011;6521;50.498;8.474;2023-03-20T18:11:04;15.87;;;10.67;;
12906;SDS011;6521;50.498;8.474;2023-03-20T18:13:55;8.73;;;6.80;;
12906;SDS011;6521;50.498;8.474;2023-03-20T18:16:46;7.23;;;3.37;;
12906;SDS011;6521;50.498;8.474;2023-03-20T18:19:36;7.07;;;3.50;;
12906;SDS011;6521;50.498;8.474;2023-03-20T18:22:27;4.33;;;2.93;;
12906;SDS011;6521;50.498;8.474;2023-03-20T18:25:18;6.97;;;3.57;;
12906;SDS011;6521;50.498;8.474;2023-03-20T18:28:12;9.93;;;4.10;;
12906;SDS011;6521;50.498;8.474;2023-03-20T18:31:09;7.40;;;4.50;;
12906;SDS011;6521;50.498;8.474;2023-03-20T18:34:02;9.13;;;4.10;;
12906;SDS011;6521;50.498;8.474;2023-03-20T18:36:53;7.43;;;4.30;;
12906;SDS011;6521;50.498;8.474;2023-03-20T18:39:44;6.37;;;3.57;;
12906;SDS011;6521;50.498;8.474;2023-03-20T18:42:35;7.00;;;3.50;;
12906;SDS011;6521;50.498;8.474;2023-03-20T18:45:26;5.87;;;3.50;;
12906;SDS011;6521;50.498;8.474;2023-03-20T18:48:18;7.10;;;3.40;;
12906;SDS011;6521;50.498;8.474;2023-03-20T18:51:10;6.30;;;3.23;;
12906;SDS011;6521;50.498;8.474;2023-03-20T18:54:01;10.70;;;3.43;;
12906;SDS011;6521;50.498;8.474;2023-03-20T18:56:51;6.13;;;3.63;;
12906;SDS011;6521;50.498;8.474;2023-03-20T18:59:43;6.50;;;3.60;;
12906;SDS011;6521;50.498;8.474;2023-03-20T19:02:34;5.30;;;3.43;;
12906;SDS011;6521;50.498;8.474;2023-03-20T19:05:27;9.97;;;3.47;;
12906;SDS011;6521;50.498;8.474;2023-03-20T19:08:19;4.73;;;3.33;;
12906;SDS011;6521;50.498;8.474;2023-03-20T19:11:10;5.23;;;3.00;;
12906;SDS011;6521;50.498;8.474;2023-03-20T19:14:04;6.43;;;3.77;;
12906;SDS011;6521;50.498;8.474;2023-03-20T19:16:55;8.70;;;4.07;;
12906;SDS011;6521;50.498;8.474;2023-03-20T19:19:46;8.60;;;4.87;;
12906;SDS011;6521;50.498;8.474;2023-03-20T19:22:36;12.67;;;5.97;;
12906;SDS011;6521;50.498;8.474;2023-03-20T19:25:27;8.33;;;6.17;;
12906;SDS011;6521;50.498;8.474;2023-03-20T19:31:17;8.77;;;4.17;;
12906;SDS011;6521;50.498;8.474;2023-03-20T19:34:08;7.97;;;3.80;;
12906;SDS011;6521;50.498;8.474;2023-03-20T19:36:58;13.80;;;9.30;;
12906;SDS011;6521;50.498;8.474;2023-03-20T19:39:49;6.20;;;4.50;;